Norfolk — WDG2147 — position and weather

sailwx.info

Track history (hours):
 
Tides and Currents Weather Stations Pressure Air Temp Water Temp Dewpoint Dewpoint Depression Visibility Wind Speed Wind Dir Waves Ship Positions

Norfolk

Owner: Virginia Pilot Boat Corporation, Virginia Beach, VA. More information available from US FCC via Universal Licensing System and Coast Guard Vessel Documentation Center.

Last reported at 2016-May-26 10:24 UTC. Time now 2016-May-27 18:04 UTC.
Position N 36°55' W 076°20'.

Length 18 m; draft 1.5 m.

Type: Pilot. MMSI: 367512630.

Date/timePositionNaut miles runAvg speedWind from/ knotsBaromVisibWave heightAir tempDewpointWater temp
2016-May-26 10:24N 36°55' W 076°20'0 0.0
2016-May-26 09:33N 36°55' W 076°20'0 0.0
2016-May-26 08:25N 36°55' W 076°20'3 0.3
2016-May-25 22:05N 36°52' W 076°20'1 0.0
2016-May-24 15:25N 36°52' W 076°19'3 3.8
2016-May-24 14:34N 36°55' W 076°20'11 9.9
2016-May-24 13:25N 36°55' W 076°05'1 0.6
2016-May-24 12:31N 36°54' W 076°05'0 0.0
2016-May-24 11:34N 36°54' W 076°05'1 0.3
2016-May-24 08:21N 36°55' W 076°05'0 0.0
2016-May-24 04:26N 36°56' W 076°05'1 0.3
2016-May-24 00:26N 36°54' W 076°05'7 7.5
2016-May-23 23:28N 36°56' W 075°57'7 1.8
2016-May-23 19:28N 36°54' W 076°05'3 3.7
2016-May-23 18:33N 36°56' W 076°02'3 1.6
2016-May-23 16:22N 36°54' W 076°05'0 0.0
2016-May-23 15:21N 36°54' W 076°05'6 7.4
2016-May-23 14:33N 36°58' W 075°60'6 6.0
2016-May-23 13:33N 36°54' W 076°05'0 0.0
2016-May-23 11:22N 36°54' W 076°05'4 4.1
2016-May-23 10:27N 36°56' W 076°01'4 1.8
2016-May-23 08:19N 36°54' W 076°05'8 0.5
2016-May-22 18:28N 36°56' W 075°56'0 0.0
2016-May-22 07:23N 36°56' W 075°56'8 0.7
2016-May-21 20:33N 36°54' W 076°05'0 0.0
2016-May-21 19:10N 36°54' W 076°05'4 5.7
2016-May-21 18:27N 36°56' W 076°01'4 4.5
2016-May-21 17:33N 36°54' W 076°05'0 0.0
2016-May-21 16:33N 36°54' W 076°05'0 0.0
2016-May-21 13:29N 36°54' W 076°05'1 1.5
2016-May-21 12:32N 36°56' W 076°04'1 1.4
2016-May-21 11:33N 36°54' W 076°05'0 0.0
2016-May-21 10:33N 36°54' W 076°05'0 0.0
2016-May-21 08:19N 36°54' W 076°05'5 0.4
2016-May-20 20:34N 36°57' W 076°01'4 3.9
2016-May-20 19:33N 36°55' W 076°05'5 2.6
2016-May-20 17:31N 36°58' W 075°60'3 0.6
2016-May-20 12:33N 36°56' W 076°02'5 0.5
2016-May-20 02:20N 36°56' W 075°56'8 1.2
2016-May-19 19:33N 36°54' W 076°05'6 6.1
2016-May-19 18:33N 36°56' W 075°58'6 1.5
2016-May-19 14:27N 36°54' W 076°05'0 0.0
2016-May-19 13:33N 36°54' W 076°05'0 0.0
2016-May-19 12:33N 36°54' W 076°05'0 0.0
2016-May-19 11:33N 36°54' W 076°05'0 0.0
2016-May-18 20:12N 36°54' W 076°05'4 5.4
2016-May-18 19:33N 36°56' W 076°02'4 0.6
2016-May-18 13:17N 36°54' W 076°05'4 4.5
2016-May-18 12:22N 36°56' W 076°01'4 0.7
2016-May-18 06:33N 36°54' W 076°05'0 0.0
2016-May-17 17:32N 36°54' W 076°05'0 0.0
2016-May-17 16:26N 36°54' W 076°05'0 0.0
2016-May-17 15:12N 36°54' W 076°05'0 0.0
2016-May-17 11:33N 36°54' W 076°05'1 0.9
2016-May-17 10:33N 36°55' W 076°05'1 0.4
2016-May-17 08:13N 36°54' W 076°05'2 0.3
2016-May-17 03:26N 36°56' W 076°04'2 0.2
2016-May-16 20:17N 36°54' W 076°05'3 3.6
2016-May-16 19:33N 36°56' W 076°03'1 1.2
2016-May-16 18:33N 36°56' W 076°04'2 1.5
2016-May-16 17:33N 36°54' W 076°05'0 0.0
2016-May-16 16:21N 36°54' W 076°05'2 1.9
2016-May-16 15:33N 36°56' W 076°04'6 6.0
2016-May-16 14:30N 36°56' W 075°56'7 7.4
2016-May-16 13:30N 36°54' W 076°05'0 0.0
2016-May-16 12:28N 36°54' W 076°05'0 0.0
2016-May-16 10:27N 36°54' W 076°05'  
Track history (hours):
 
Tides and Currents Weather Stations Pressure Air Temp Water Temp Dewpoint Dewpoint Depression Visibility Wind Speed Wind Dir Waves Ship Positions

Norfolk

Owner: Virginia Pilot Boat Corporation, Virginia Beach, VA. More information available from US FCC via Universal Licensing System and Coast Guard Vessel Documentation Center.

Last reported at 2016-May-26 10:24 UTC. Time now 2016-May-27 18:04 UTC.
Position N 36°55' W 076°20'.

Length 18 m; draft 1.5 m.

Type: Pilot. MMSI: 367512630.

Date/timePositionNaut miles runAvg speedWind from/ knotsBaromVisibWave heightAir tempDewpointWater temp
2016-May-26 10:24N 36°55' W 076°20'0 0.0
2016-May-26 09:33N 36°55' W 076°20'0 0.0
2016-May-26 08:25N 36°55' W 076°20'3 0.3
2016-May-25 22:05N 36°52' W 076°20'1 0.0
2016-May-24 15:25N 36°52' W 076°19'3 3.8
2016-May-24 14:34N 36°55' W 076°20'11 9.9
2016-May-24 13:25N 36°55' W 076°05'1 0.6
2016-May-24 12:31N 36°54' W 076°05'0 0.0
2016-May-24 11:34N 36°54' W 076°05'1 0.3
2016-May-24 08:21N 36°55' W 076°05'0 0.0
2016-May-24 04:26N 36°56' W 076°05'1 0.3
2016-May-24 00:26N 36°54' W 076°05'7 7.5
2016-May-23 23:28N 36°56' W 075°57'7 1.8
2016-May-23 19:28N 36°54' W 076°05'3 3.7
2016-May-23 18:33N 36°56' W 076°02'3 1.6
2016-May-23 16:22N 36°54' W 076°05'0 0.0
2016-May-23 15:21N 36°54' W 076°05'6 7.4
2016-May-23 14:33N 36°58' W 075°60'6 6.0
2016-May-23 13:33N 36°54' W 076°05'0 0.0
2016-May-23 11:22N 36°54' W 076°05'4 4.1
2016-May-23 10:27N 36°56' W 076°01'4 1.8
2016-May-23 08:19N 36°54' W 076°05'8 0.5
2016-May-22 18:28N 36°56' W 075°56'0 0.0
2016-May-22 07:23N 36°56' W 075°56'8 0.7
2016-May-21 20:33N 36°54' W 076°05'0 0.0
2016-May-21 19:10N 36°54' W 076°05'4 5.7
2016-May-21 18:27N 36°56' W 076°01'4 4.5
2016-May-21 17:33N 36°54' W 076°05'0 0.0
2016-May-21 16:33N 36°54' W 076°05'0 0.0
2016-May-21 13:29N 36°54' W 076°05'1 1.5
2016-May-21 12:32N 36°56' W 076°04'1 1.4
2016-May-21 11:33N 36°54' W 076°05'0 0.0
2016-May-21 10:33N 36°54' W 076°05'0 0.0
2016-May-21 08:19N 36°54' W 076°05'5 0.4
2016-May-20 20:34N 36°57' W 076°01'4 3.9
2016-May-20 19:33N 36°55' W 076°05'5 2.6
2016-May-20 17:31N 36°58' W 075°60'3 0.6
2016-May-20 12:33N 36°56' W 076°02'5 0.5
2016-May-20 02:20N 36°56' W 075°56'8 1.2
2016-May-19 19:33N 36°54' W 076°05'6 6.1
2016-May-19 18:33N 36°56' W 075°58'6 1.5
2016-May-19 14:27N 36°54' W 076°05'0 0.0
2016-May-19 13:33N 36°54' W 076°05'0 0.0
2016-May-19 12:33N 36°54' W 076°05'0 0.0
2016-May-19 11:33N 36°54' W 076°05'0 0.0
2016-May-18 20:12N 36°54' W 076°05'4 5.4
2016-May-18 19:33N 36°56' W 076°02'4 0.6
2016-May-18 13:17N 36°54' W 076°05'4 4.5
2016-May-18 12:22N 36°56' W 076°01'4 0.7
2016-May-18 06:33N 36°54' W 076°05'0 0.0
2016-May-17 17:32N 36°54' W 076°05'0 0.0
2016-May-17 16:26N 36°54' W 076°05'0 0.0
2016-May-17 15:12N 36°54' W 076°05'0 0.0
2016-May-17 11:33N 36°54' W 076°05'1 0.9
2016-May-17 10:33N 36°55' W 076°05'1 0.4
2016-May-17 08:13N 36°54' W 076°05'2 0.3
2016-May-17 03:26N 36°56' W 076°04'2 0.2
2016-May-16 20:17N 36°54' W 076°05'3 3.6
2016-May-16 19:33N 36°56' W 076°03'1 1.2
2016-May-16 18:33N 36°56' W 076°04'2 1.5
2016-May-16 17:33N 36°54' W 076°05'0 0.0
2016-May-16 16:21N 36°54' W 076°05'2 1.9
2016-May-16 15:33N 36°56' W 076°04'6 6.0
2016-May-16 14:30N 36°56' W 075°56'7 7.4
2016-May-16 13:30N 36°54' W 076°05'0 0.0
2016-May-16 12:28N 36°54' W 076°05'0 0.0
2016-May-16 10:27N 36°54' W 076°05'  

Dump ship's entire track history